Latest Weather Observations for Dunalley

IDT60801

Issued at 12:31 pm EDT Friday 12 February 2016 (issued every 30 minutes, with the page automatically refreshed every 10 minutes)

About weather observations | Map of weather stations | Latest weather observations for TAS | Other Formats
Station Details ID: 094254 Name: DUNALLEY (STROUD POINT) Lat: -42.90 Lon: 147.79 Height: 12.43 m
Data from the previous 72 hours. | See also: Recent months at Dunalley
Date/Time
EDT
Temp
°C
App
Temp
°C
Dew
Point
Rel
Hum
%
Delta-T
°C
Wind Press
QNH
hPa
Press
MSL
hPa
Rain
since 9 am
mm
Dir
 
Spd
km/h
Gust
km/h
Spd
kts
Gust
kts
12/12:30pm 22.1 18.6 15.5 66 3.9 NE 28 33 15 18 1015.9 1015.9 0.2
12/12:00pm 22.0 19.3 15.6 67 3.8 NE 24 30 13 16 1016.3 1016.3 0.2
12/11:30am 21.4 20.3 15.3 68 3.6 NE 15 22 8 12 1016.9 1016.9 0.2
12/11:00am 19.9 18.7 15.1 74 2.8 ENE 15 20 8 11 1017.2 1017.2 0.2
12/10:30am 19.8 18.7 15.2 75 2.7 ENE 15 19 8 10 1017.6 1017.6 0.2
12/10:00am 18.3 17.3 14.6 79 2.1 ENE 13 19 7 10 1018.0 1018.0 0.2
12/09:30am 17.9 17.2 14.4 80 2.0 NE 11 15 6 8 1018.2 1018.2 0.2
12/09:00am 16.9 17.1 14.2 84 1.5 NE 6 7 3 4 1018.5 1018.5 0.8
12/08:30am 16.6 16.6 14.1 85 1.4 NE 7 9 4 5 1018.4 1018.4 0.8
12/08:00am 16.5 16.5 14.2 86 1.3 NE 7 11 4 6 1018.2 1018.2 0.8
12/07:30am 16.1 16.2 13.9 87 1.2 NNE 6 9 3 5 1018.1 1018.1 0.8
12/07:00am 16.0 16.1 14.0 88 1.1 NE 6 9 3 5 1017.8 1017.8 0.8
12/06:30am 15.5 15.0 13.7 89 1.0 NE 9 11 5 6 1017.5 1017.5 0.8
12/06:00am 15.3 15.3 13.7 90 0.9 NE 6 9 3 5 1017.5 1017.5 0.8
12/05:30am 15.3 15.7 13.8 91 0.8 NE 4 6 2 3 1017.5 1017.5 0.8
12/05:00am 15.0 15.3 13.5 91 0.8 NE 4 6 2 3 1017.5 1017.5 0.8
12/04:30am 14.6 14.8 13.1 91 0.8 NE 4 7 2 4 1017.7 1017.7 0.8
12/04:00am 14.9 14.3 13.4 91 0.8 NE 9 11 5 6 1017.7 1017.7 0.8
12/03:30am 15.1 15.1 13.6 91 0.8 NE 6 9 3 5 1017.9 1017.9 0.8
12/03:00am 15.0 14.8 13.5 91 0.8 NE 7 9 4 5 1018.0 1018.0 0.8
12/02:30am 14.8 14.1 13.3 91 0.8 NNE 9 11 5 6 1018.3 1018.3 0.8
12/02:00am 14.9 14.6 13.3 90 0.9 NNE 7 9 4 5 1018.5 1018.5 0.6
12/01:30am 14.8 15.0 13.2 90 0.9 NNE 4 7 2 4 1018.7 1018.7 0.6
12/01:00am 14.7 14.9 13.1 90 0.9 NNE 4 6 2 3 1018.9 1018.9 0.4
12/12:30am 15.2 14.0 12.9 86 1.3 NNE 11 15 6 8 1018.9 1018.9 0.0
12/12:00am 17.2 15.6 11.5 69 3.1 E 11 15 6 8 1018.7 1018.7 0.0
 
Date/Time
EDT
Temp
°C
App
Temp
°C
Dew
Point
Rel
Hum
%
Delta-T
°C
Wind Press
QNH
hPa
Press
MSL
hPa
Rain
since 9 am
mm
Dir
 
Spd
km/h
Gust
km/h
Spd
kts
Gust
kts
11/11:30pm 17.3 16.1 11.6 69 3.1 E 9 15 5 8 1018.7 1018.7 0.0
11/11:00pm 17.3 15.6 11.3 68 3.2 E 11 15 6 8 1018.8 1018.8 0.0
11/10:30pm 17.2 15.9 11.2 68 3.2 E 9 13 5 7 1018.9 1018.9 0.0
11/10:00pm 17.3 15.6 11.3 68 3.2 E 11 15 6 8 1018.9 1018.9 0.0
11/09:30pm 17.3 15.5 10.9 66 3.4 ENE 11 15 6 8 1018.6 1018.6 0.0
11/09:00pm 17.3 16.3 11.1 67 3.3 E 7 11 4 6 1018.4 1018.4 0.0
11/08:30pm 17.4 16.0 11.0 66 3.4 E 9 13 5 7 1018.0 1018.0 0.0
11/08:00pm 17.6 15.8 10.7 64 3.7 E 11 13 6 7 1017.7 1017.7 0.0
11/07:30pm 17.9 16.4 10.5 62 4.0 E 9 17 5 9 1017.3 1017.3 0.0
11/07:00pm 18.1 15.6 11.0 63 3.8 ESE 15 19 8 10 1017.0 1017.0 0.0
11/06:30pm 18.2 15.6 10.8 62 4.0 E 15 19 8 10 1016.9 1016.9 0.0
11/06:00pm 18.8 17.5 11.4 62 4.0 E 9 13 5 7 1016.7 1016.7 0.0
11/05:30pm 18.9 16.8 11.2 61 4.2 E 13 17 7 9 1016.5 1016.5 0.0
11/05:00pm 19.2 17.8 11.0 59 4.5 ENE 9 15 5 8 1016.4 1016.4 0.0
11/04:30pm 19.3 16.5 11.3 60 4.4 NE 17 24 9 13 1016.3 1016.3 0.0
11/04:00pm 21.0 17.9 12.2 57 4.9 NE 20 28 11 15 1016.2 1016.2 0.0
11/03:30pm 21.5 19.3 12.1 55 5.3 NE 15 22 8 12 1016.3 1016.3 0.0
11/03:00pm 21.3 19.0 11.6 54 5.4 SSW 15 20 8 11 1016.2 1016.2 0.0
11/02:30pm 21.2 19.6 11.5 54 5.4 SSW 11 15 6 8 1016.1 1016.1 0.0
11/02:00pm 21.4 19.6 10.9 51 5.8 SSW 11 13 6 7 1016.2 1016.2 0.0
11/01:30pm 20.3 18.5 10.7 54 5.2 SSW 11 15 6 8 1016.2 1016.2 0.0
11/01:00pm 20.7 18.8 10.5 52 5.5 SW 11 13 6 7 1016.2 1016.2 0.0
11/12:30pm 20.3 18.8 10.7 54 5.2 SW 9 13 5 7 1016.4 1016.4 0.0
11/12:00pm 20.1 18.9 10.2 53 5.3 SW 7 9 4 5 1016.5 1016.5 0.0
11/11:30am 19.4 17.6 9.6 53 5.2 SW 9 13 5 7 1016.6 1016.6 0.0
11/11:00am 19.2 16.5 9.1 52 5.3 SW 13 17 7 9 1016.7 1016.7 0.0
11/10:30am 19.3 16.7 9.5 53 5.2 SW 13 19 7 10 1016.8 1016.8 0.0
11/10:00am 18.4 15.1 9.5 56 4.7 SW 17 22 9 12 1016.8 1016.8 0.0
11/09:30am 18.6 15.0 9.7 56 4.7 SW 19 24 10 13 1016.5 1016.5 0.0
11/09:00am 18.0 16.3 11.3 65 3.6 SSW 11 17 6 9 1016.2 1016.2 0.0
11/08:30am 16.6 16.0 12.4 76 2.3 SSW 7 11 4 6 1016.0 1016.0 0.0
11/08:00am 16.8 15.1 12.3 75 2.5 SSW 13 19 7 10 1015.6 1015.6 0.0
11/07:30am 16.7 16.2 12.5 76 2.3 SSW 7 13 4 7 1015.4 1015.4 0.0
11/07:00am 15.8 15.8 12.5 81 1.8 SSW 4 6 2 3 1015.0 1015.0 0.0
11/06:30am 15.2 15.1 12.0 81 1.7 SSW 4 6 2 3 1014.7 1014.7 0.0
11/06:00am 15.1 14.6 12.1 82 1.6 SSW 6 6 3 3 1014.5 1014.5 0.0
11/05:30am 15.7 15.7 12.5 81 1.8 SSW 4 9 2 5 1014.1 1014.1 0.0
11/05:00am 15.6 15.2 12.4 81 1.8 SSW 6 9 3 5 1013.9 1013.9 0.0
11/04:30am 15.9 15.3 12.3 79 2.0 SSW 7 11 4 6 1013.7 1013.7 0.0
11/04:00am 16.2 14.9 12.6 79 2.0 SSW 11 15 6 8 1013.7 1013.7 0.0
11/03:30am 16.3 15.8 12.7 79 2.0 SSW 7 11 4 6 1013.7 1013.7 0.0
11/03:00am 16.2 15.0 12.9 81 1.8 SSW 11 15 6 8 1013.8 1013.8 0.0
11/02:30am 16.3 14.1 13.2 82 1.7 SSW 17 19 9 10 1013.8 1013.8 0.0
11/02:00am 16.2 13.9 12.9 81 1.8 S 17 20 9 11 1013.9 1013.9 0.0
11/01:30am 16.3 13.7 13.2 82 1.7 S 19 24 10 13 1013.7 1013.7 0.0
11/01:00am 15.9 13.0 13.0 83 1.6 SSW 20 26 11 14 1013.8 1013.8 0.0
11/12:30am 16.4 13.5 14.1 86 1.3 SSW 22 26 12 14 1013.6 1013.6 0.0
11/12:00am 16.6 13.0 14.1 85 1.4 S 26 32 14 17 1013.4 1013.4 0.0
 
Date/Time
EDT
Temp
°C
App
Temp
°C
Dew
Point
Rel
Hum
%
Delta-T
°C
Wind Press
QNH
hPa
Press
MSL
hPa
Rain
since 9 am
mm
Dir
 
Spd
km/h
Gust
km/h
Spd
kts
Gust
kts
10/11:30pm 16.9 13.0 14.5 86 1.4 S 28 33 15 18 1013.1 1013.1 0.0
10/11:00pm 18.1 15.0 15.5 85 1.5 SSW 26 30 14 16 1013.0 1013.0 0.0
10/10:30pm 18.5 19.0 14.0 75 2.6 NNE 4 6 2 3 1012.8 1012.8 0.0
10/10:00pm 18.4 19.2 12.6 69 3.2 CALM 0 0 0 0 1012.7 1012.7 0.0
10/09:30pm 17.6 17.6 12.5 72 2.8 NNE 4 6 2 3 1012.5 1012.5 0.0
10/09:00pm 17.1 16.5 12.4 74 2.6 NNE 7 9 4 5 1012.2 1012.2 0.0
10/08:30pm 18.6 17.3 13.7 73 2.8 NE 13 15 7 8 1012.0 1012.0 0.0
10/08:00pm 19.1 17.9 14.1 73 2.9 NNE 13 17 7 9 1011.9 1011.9 0.0
10/07:30pm 19.4 18.2 14.0 71 3.1 NE 13 17 7 9 1011.7 1011.7 0.0
10/07:00pm 19.9 18.8 14.3 70 3.2 NE 13 17 7 9 1011.3 1011.3 0.0
10/06:30pm 20.4 19.2 14.1 67 3.6 NE 13 17 7 9 1011.2 1011.2 0.0
10/06:00pm 21.4 20.2 14.1 63 4.3 NE 13 19 7 10 1011.2 1011.2 0.0
10/05:30pm 20.4 18.8 13.8 66 3.8 NE 15 19 8 10 1011.0 1011.0 0.0
10/05:00pm 20.7 18.7 13.9 65 3.9 NE 17 22 9 12 1011.0 1011.0 0.0
10/04:30pm 21.1 19.4 13.5 62 4.4 NE 15 19 8 10 1010.9 1010.9 0.0
10/04:00pm 21.9 20.2 13.5 59 4.9 NE 15 22 8 12 1011.0 1011.0 0.0
10/03:30pm 22.6 20.9 14.7 61 4.7 NE 17 24 9 13 1010.9 1010.9 0.0
10/03:00pm 22.9 21.4 14.2 58 5.1 SSE 15 19 8 10 1011.2 1011.2 0.0
10/02:30pm 21.5 20.4 10.0 48 6.2 SW 6 7 3 4 1011.5 1011.5 0.0
10/02:00pm 21.3 20.1 10.2 49 6.0 SW 7 9 4 5 1011.6 1011.6 0.0
10/01:30pm 21.4 20.4 10.9 51 5.8 SW 7 9 4 5 1011.7 1011.7 0.0
10/01:00pm 20.8 19.6 10.3 51 5.7 SW 7 11 4 6 1012.0 1012.0 0.0
10/12:30pm 20.9 19.1 10.7 52 5.6 SW 11 13 6 7 1012.3 1012.3 0.0
10/12:00pm 20.6 20.0 11.8 57 4.9 SW 6 11 3 6 1012.6 1012.6 0.0
10/11:30am 20.3 19.0 9.8 51 5.6 SW 7 9 4 5 1013.0 1013.0 0.0
10/11:00am 20.3 19.4 11.2 56 5.0 SW 7 9 4 5 1013.1 1013.1 0.0
10/10:30am 19.7 18.8 10.7 56 4.9 SW 6 7 3 4 1013.2 1013.2 0.0
10/10:00am 19.1 17.8 11.2 60 4.3 SW 9 13 5 7 1013.2 1013.2 0.0
10/09:30am 19.4 18.3 10.1 55 5.0 SW 6 7 3 4 1013.3 1013.3 0.0
10/09:00am 18.6 17.6 10.9 61 4.2 SW 7 11 4 6 1013.5 1013.5 0.0
10/08:30am 17.8 16.3 10.4 62 4.0 SW 9 11 5 6 1013.6 1013.6 0.0
10/08:00am 17.6 16.3 11.2 66 3.5 SW 9 15 5 8 1013.4 1013.4 0.0
10/07:30am 17.1 14.6 10.9 67 3.3 SW 15 17 8 9 1013.2 1013.2 0.0
10/07:00am 16.8 13.9 10.9 68 3.2 SW 17 24 9 13 1013.2 1013.2 0.0
10/06:30am 16.5 16.2 14.3 87 1.3 S 9 13 5 7 1012.9 1012.9 0.0
10/06:00am 15.9 15.9 13.6 86 1.3 S 6 6 3 3 1012.8 1012.8 0.0
10/05:30am 15.5 15.5 13.7 89 1.0 S 6 6 3 3 1012.8 1012.8 0.0
10/05:00am 15.6 15.9 13.4 87 1.2 S 4 4 2 2 1012.7 1012.7 0.0
10/04:30am 16.1 16.5 13.8 86 1.3 S 4 6 2 3 1012.8 1012.8 0.0
10/04:00am 15.9 16.2 13.4 85 1.4 S 4 4 2 2 1012.9 1012.9 0.0
10/03:30am 15.8 16.2 13.6 87 1.2 S 4 4 2 2 1012.8 1012.8 0.0
10/03:00am 15.8 16.1 13.3 85 1.4 S 4 6 2 3 1013.0 1013.0 0.0
10/02:30am 16.6 16.7 13.9 84 1.5 S 6 7 3 4 1013.3 1013.3 0.0
10/02:00am 16.9 16.8 14.0 83 1.6 S 7 11 4 6 1013.7 1013.7 0.0
10/01:30am 17.1 17.0 13.8 81 1.9 S 7 11 4 6 1014.0 1014.0 0.0
10/01:00am 17.2 16.4 13.9 81 1.9 S 11 17 6 9 1014.3 1014.3 0.0
10/12:30am 17.4 17.4 13.7 79 2.1 S 6 7 3 4 1014.3 1014.3 0.0
10/12:00am 17.6 17.5 13.9 79 2.1 S 7 9 4 5 1014.6 1014.6 0.0
 
Date/Time
EDT
Temp
°C
App
Temp
°C
Dew
Point
Rel
Hum
%
Delta-T
°C
Wind Press
QNH
hPa
Press
MSL
hPa
Rain
since 9 am
mm
Dir
 
Spd
km/h
Gust
km/h
Spd
kts
Gust
kts
09/11:30pm 17.7 15.7 14.0 79 2.1 S 17 20 9 11 1014.9 1014.9 0.0
09/11:00pm 17.5 15.7 14.4 82 1.8 SSW 17 20 9 11 1014.9 1014.9 0.0
09/10:30pm 17.4 16.3 14.3 82 1.8 S 13 19 7 10 1015.0 1015.0 0.0
09/10:00pm 17.9 16.2 14.8 82 1.8 S 17 24 9 13 1015.2 1015.2 0.0
09/09:30pm 18.4 14.8 15.3 82 1.8 S 28 33 15 18 1015.3 1015.3 0.0
09/09:00pm 18.3 13.8 15.0 81 1.9 S 32 39 17 21 1015.1 1015.1 0.0
09/08:30pm 19.2 16.1 15.7 80 2.1 SSW 26 30 14 16 1014.8 1014.8 0.0
09/08:00pm 19.7 17.1 15.8 78 2.3 SSW 24 28 13 15 1014.5 1014.5 0.0
09/07:30pm 21.6 22.7 15.7 69 3.5 ENE 4 9 2 5 1014.5 1014.5 0.0
09/07:00pm 21.6 21.2 16.1 71 3.3 ENE 13 17 7 9 1014.4 1014.4 0.0
09/06:30pm 21.9 20.2 16.2 70 3.4 ENE 20 26 11 14 1014.3 1014.3 0.0
09/06:00pm 22.6 20.7 16.6 69 3.7 ENE 22 28 12 15 1014.5 1014.5 0.0
09/05:30pm 22.1 19.4 15.7 67 3.8 ENE 24 30 13 16 1014.9 1014.9 0.0
09/05:00pm 22.3 19.2 15.6 66 4.0 ENE 26 33 14 18 1015.3 1015.3 0.0
09/04:30pm 22.9 19.7 16.2 66 4.1 ENE 28 39 15 21 1015.8 1015.8 0.0
09/04:00pm 22.8 18.2 15.1 62 4.6 NE 33 39 18 21 1016.0 1016.0 0.0
09/03:30pm 22.7 18.2 15.0 61 4.6 ENE 32 41 17 22 1016.4 1016.4 0.0
09/03:00pm 22.4 17.2 14.5 61 4.6 ENE 35 43 19 23 1016.9 1016.9 0.0
09/02:30pm 22.0 16.6 13.9 60 4.7 ENE 35 46 19 25 1017.2 1017.2 0.0
09/02:00pm 22.4 17.3 13.2 56 5.3 ENE 32 39 17 21 1017.6 1017.6 0.0
09/01:30pm 22.3 17.4 12.5 53 5.6 ENE 30 37 16 20 1018.0 1018.0 0.0
09/01:00pm 21.9 18.1 12.5 55 5.3 ENE 24 32 13 17 1018.6 1018.6 0.0

Other Formats:

Comma delimited format used in spreadsheet applications
http://www.bom.gov.au/fwo/IDT60801/IDT60801.94951.axf

JavaScript Object Notation format (JSON) in row-major order
http://www.bom.gov.au/fwo/IDT60801/IDT60801.94951.json